sensor_id;sensor_type;location;lat;lon;timestamp;pressure;altitude;pressure_sealevel;temperature;humidity
11888;BME280;6003;42.756;23.130;2023-03-22T00:00:52;154550.19;;;8.31;100.00
11888;BME280;6003;42.756;23.130;2023-03-22T00:03:19;154554.19;;;8.33;100.00
11888;BME280;6003;42.756;23.130;2023-03-22T00:05:46;154559.47;;;8.35;100.00
11888;BME280;6003;42.756;23.130;2023-03-22T00:08:14;154567.38;;;8.38;100.00
11888;BME280;6003;42.756;23.130;2023-03-22T00:10:41;154560.78;;;8.35;100.00
11888;BME280;6003;42.756;23.130;2023-03-22T00:13:09;154551.56;;;8.32;100.00
11888;BME280;6003;42.756;23.130;2023-03-22T00:15:36;154567.38;;;8.38;100.00
11888;BME280;6003;42.756;23.130;2023-03-22T00:18:03;154581.97;;;8.44;100.00
11888;BME280;6003;42.756;23.130;2023-03-22T00:20:31;154575.34;;;8.41;100.00
11888;BME280;6003;42.756;23.130;2023-03-22T00:23:01;154546.28;;;8.30;100.00
11888;BME280;6003;42.756;23.130;2023-03-22T00:25:30;154530.44;;;8.24;100.00
11888;BME280;6003;42.756;23.130;2023-03-22T00:27:56;154547.59;;;8.30;100.00
11888;BME280;6003;42.756;23.130;2023-03-22T00:30:23;154556.81;;;8.34;100.00
11888;BME280;6003;42.756;23.130;2023-03-22T00:32:50;154558.16;;;8.34;100.00
11888;BME280;6003;42.756;23.130;2023-03-22T00:35:17;154548.91;;;8.31;100.00
11888;BME280;6003;42.756;23.130;2023-03-22T00:37:44;154506.72;;;8.14;100.00
11888;BME280;6003;42.756;23.130;2023-03-22T00:40:12;154484.28;;;8.06;100.00
11888;BME280;6003;42.756;23.130;2023-03-22T00:42:41;154501.41;;;8.12;100.00
11888;BME280;6003;42.756;23.130;2023-03-22T00:45:10;154496.13;;;8.10;100.00
11888;BME280;6003;42.756;23.130;2023-03-22T00:47:37;154497.44;;;8.11;100.00
11888;BME280;6003;42.756;23.130;2023-03-22T00:50:05;154510.63;;;8.16;100.00
11888;BME280;6003;42.756;23.130;2023-03-22T00:52:32;154514.63;;;8.18;100.00
11888;BME280;6003;42.756;23.130;2023-03-22T00:54:59;154508.03;;;8.15;100.00
11888;BME280;6003;42.756;23.130;2023-03-22T00:57:26;154505.34;;;8.14;100.00
11888;BME280;6003;42.756;23.130;2023-03-22T00:59:54;154493.50;;;8.09;100.00
11888;BME280;6003;42.756;23.130;2023-03-22T01:02:22;154497.44;;;8.11;100.00
11888;BME280;6003;42.756;23.130;2023-03-22T01:04:54;154482.91;;;8.05;100.00
11888;BME280;6003;42.756;23.130;2023-03-22T01:07:21;154501.41;;;8.12;100.00
11888;BME280;6003;42.756;23.130;2023-03-22T01:09:49;154510.63;;;8.16;100.00
11888;BME280;6003;42.756;23.130;2023-03-22T01:12:17;154505.34;;;8.14;100.00
11888;BME280;6003;42.756;23.130;2023-03-22T01:14:44;154511.94;;;8.17;100.00
11888;BME280;6003;42.756;23.130;2023-03-22T01:17:13;154496.13;;;8.10;100.00
11888;BME280;6003;42.756;23.130;2023-03-22T01:19:39;154517.25;;;8.19;100.00
11888;BME280;6003;42.756;23.130;2023-03-22T01:22:07;154498.81;;;8.11;100.00
11888;BME280;6003;42.756;23.130;2023-03-22T01:24:34;154505.34;;;8.14;100.00
11888;BME280;6003;42.756;23.130;2023-03-22T01:27:01;154500.09;;;8.12;100.00
11888;BME280;6003;42.756;23.130;2023-03-22T01:29:27;154496.13;;;8.10;100.00
11888;BME280;6003;42.756;23.130;2023-03-22T01:31:55;154489.53;;;8.08;100.00
11888;BME280;6003;42.756;23.130;2023-03-22T01:34:24;154493.50;;;8.09;100.00
11888;BME280;6003;42.756;23.130;2023-03-22T01:36:51;154480.31;;;8.04;100.00
11888;BME280;6003;42.756;23.130;2023-03-22T01:39:17;154482.91;;;8.05;100.00
11888;BME280;6003;42.756;23.130;2023-03-22T01:41:44;154484.28;;;8.06;100.00
11888;BME280;6003;42.756;23.130;2023-03-22T01:44:13;154506.72;;;8.14;100.00
11888;BME280;6003;42.756;23.130;2023-03-22T01:46:40;154515.94;;;8.18;100.00
11888;BME280;6003;42.756;23.130;2023-03-22T01:49:09;154518.56;;;8.19;100.00
11888;BME280;6003;42.756;23.130;2023-03-22T01:51:42;154522.53;;;8.21;100.00
11888;BME280;6003;42.756;23.130;2023-03-22T01:54:14;154540.97;;;8.28;100.00
11888;BME280;6003;42.756;23.130;2023-03-22T01:56:43;154534.38;;;8.25;100.00
11888;BME280;6003;42.756;23.130;2023-03-22T01:59:11;154519.88;;;8.20;100.00
11888;BME280;6003;42.756;23.130;2023-03-22T02:01:40;154527.78;;;8.23;100.00
11888;BME280;6003;42.756;23.130;2023-03-22T02:04:14;154514.63;;;8.18;100.00
11888;BME280;6003;42.756;23.130;2023-03-22T02:06:43;154521.22;;;8.20;100.00
11888;BME280;6003;42.756;23.130;2023-03-22T02:09:13;154517.25;;;8.19;100.00
11888;BME280;6003;42.756;23.130;2023-03-22T02:11:43;154513.31;;;8.17;100.00
11888;BME280;6003;42.756;23.130;2023-03-22T02:14:32;154505.34;;;8.14;100.00
11888;BME280;6003;42.756;23.130;2023-03-22T02:17:16;154480.31;;;8.04;100.00
11888;BME280;6003;42.756;23.130;2023-03-22T02:23:24;154517.25;;;8.19;100.00
11888;BME280;6003;42.756;23.130;2023-03-22T02:26:24;154530.44;;;8.24;100.00
11888;BME280;6003;42.756;23.130;2023-03-22T02:29:02;154538.34;;;8.27;100.00
11888;BME280;6003;42.756;23.130;2023-03-22T02:32:04;154535.75;;;8.26;100.00
11888;BME280;6003;42.756;23.130;2023-03-22T02:34:58;154527.78;;;8.23;100.00
11888;BME280;6003;42.756;23.130;2023-03-22T02:38:03;154490.84;;;8.08;100.00
11888;BME280;6003;42.756;23.130;2023-03-22T02:40:38;154472.41;;;8.01;100.00
11888;BME280;6003;42.756;23.130;2023-03-22T02:43:13;154469.78;;;8.00;100.00
11888;BME280;6003;42.756;23.130;2023-03-22T02:45:44;154465.78;;;7.99;100.00
11888;BME280;6003;42.756;23.130;2023-03-22T02:48:16;154480.31;;;8.04;100.00
11888;BME280;6003;42.756;23.130;2023-03-22T02:50:50;154492.19;;;8.09;100.00
11888;BME280;6003;42.756;23.130;2023-03-22T02:53:21;154498.81;;;8.11;100.00
11888;BME280;6003;42.756;23.130;2023-03-22T02:55:54;154519.88;;;8.20;100.00
11888;BME280;6003;42.756;23.130;2023-03-22T02:58:26;154522.53;;;8.21;100.00
11888;BME280;6003;42.756;23.130;2023-03-22T03:00:56;154535.75;;;8.26;100.00
11888;BME280;6003;42.756;23.130;2023-03-22T03:03:27;154540.97;;;8.28;100.00
11888;BME280;6003;42.756;23.130;2023-03-22T03:05:57;154534.38;;;8.25;100.00
11888;BME280;6003;42.756;23.130;2023-03-22T03:08:26;154540.97;;;8.28;100.00
11888;BME280;6003;42.756;23.130;2023-03-22T03:10:54;154546.28;;;8.30;100.00
11888;BME280;6003;42.756;23.130;2023-03-22T03:13:21;154556.81;;;8.34;100.00
11888;BME280;6003;42.756;23.130;2023-03-22T03:15:51;154547.59;;;8.30;100.00
11888;BME280;6003;42.756;23.130;2023-03-22T03:18:29;154543.66;;;8.29;100.00
11888;BME280;6003;42.756;23.130;2023-03-22T03:21:04;154546.28;;;8.30;100.00
11888;BME280;6003;42.756;23.130;2023-03-22T03:23:39;154515.94;;;8.18;100.00
11888;BME280;6003;42.756;23.130;2023-03-22T03:26:19;154517.25;;;8.19;100.00
11888;BME280;6003;42.756;23.130;2023-03-22T03:28:51;154521.22;;;8.20;100.00
11888;BME280;6003;42.756;23.130;2023-03-22T03:31:30;154534.38;;;8.25;100.00
11888;BME280;6003;42.756;23.130;2023-03-22T03:34:08;154525.16;;;8.22;100.00
11888;BME280;6003;42.756;23.130;2023-03-22T03:36:41;154519.88;;;8.20;100.00
11888;BME280;6003;42.756;23.130;2023-03-22T03:39:11;154500.09;;;8.12;100.00
11888;BME280;6003;42.756;23.130;2023-03-22T03:41:41;154498.81;;;8.11;100.00
11888;BME280;6003;42.756;23.130;2023-03-22T03:44:10;154476.38;;;8.03;100.00
11888;BME280;6003;42.756;23.130;2023-03-22T03:46:38;154449.97;;;7.93;100.00
11888;BME280;6003;42.756;23.130;2023-03-22T03:49:06;154453.94;;;7.94;100.00
11888;BME280;6003;42.756;23.130;2023-03-22T03:51:45;154453.94;;;7.94;100.00
11888;BME280;6003;42.756;23.130;2023-03-22T03:54:12;154464.47;;;7.98;100.00
11888;BME280;6003;42.756;23.130;2023-03-22T03:56:40;154477.69;;;8.03;100.00
11888;BME280;6003;42.756;23.130;2023-03-22T03:59:07;154477.69;;;8.03;100.00
11888;BME280;6003;42.756;23.130;2023-03-22T04:01:34;154479.00;;;8.04;100.00
11888;BME280;6003;42.756;23.130;2023-03-22T04:04:01;154451.28;;;7.93;100.00
11888;BME280;6003;42.756;23.130;2023-03-22T04:06:28;154449.97;;;7.93;100.00
11888;BME280;6003;42.756;23.130;2023-03-22T04:08:54;154440.75;;;7.89;100.00
11888;BME280;6003;42.756;23.130;2023-03-22T04:11:22;154427.53;;;7.84;100.00
11888;BME280;6003;42.756;23.130;2023-03-22T04:13:50;154409.06;;;7.77;100.00
11888;BME280;6003;42.756;23.130;2023-03-22T04:16:17;154413.03;;;7.78;100.00
11888;BME280;6003;42.756;23.130;2023-03-22T04:18:44;154413.03;;;7.78;100.00
11888;BME280;6003;42.756;23.130;2023-03-22T04:21:10;154410.41;;;7.77;100.00
11888;BME280;6003;42.756;23.130;2023-03-22T04:23:40;154407.75;;;7.76;100.00
11888;BME280;6003;42.756;23.130;2023-03-22T04:26:10;154411.72;;;7.78;100.00
11888;BME280;6003;42.756;23.130;2023-03-22T04:28:38;154422.25;;;7.82;100.00
11888;BME280;6003;42.756;23.130;2023-03-22T04:31:06;154409.06;;;7.77;100.00
11888;BME280;6003;42.756;23.130;2023-03-22T04:33:33;154399.84;;;7.73;100.00
11888;BME280;6003;42.756;23.130;2023-03-22T04:36:04;154401.16;;;7.74;100.00
11888;BME280;6003;42.756;23.130;2023-03-22T04:38:34;154399.84;;;7.73;100.00
11888;BME280;6003;42.756;23.130;2023-03-22T04:41:01;154403.81;;;7.75;100.00
11888;BME280;6003;42.756;23.130;2023-03-22T04:43:29;154419.63;;;7.81;100.00
11888;BME280;6003;42.756;23.130;2023-03-22T04:46:00;154422.25;;;7.82;100.00
11888;BME280;6003;42.756;23.130;2023-03-22T04:48:28;154446.00;;;7.91;100.00
11888;BME280;6003;42.756;23.130;2023-03-22T04:50:55;154453.94;;;7.94;100.00
11888;BME280;6003;42.756;23.130;2023-03-22T04:53:22;154461.88;;;7.97;100.00
11888;BME280;6003;42.756;23.130;2023-03-22T04:55:52;154464.47;;;7.98;100.00
11888;BME280;6003;42.756;23.130;2023-03-22T04:58:21;154461.88;;;7.97;100.00
11888;BME280;6003;42.756;23.130;2023-03-22T05:00:49;154477.69;;;8.03;100.00
11888;BME280;6003;42.756;23.130;2023-03-22T05:03:17;154493.50;;;8.09;100.00
11888;BME280;6003;42.756;23.130;2023-03-22T05:06:01;154530.44;;;8.24;100.00
11888;BME280;6003;42.756;23.130;2023-03-22T05:08:29;154555.50;;;8.33;100.00
11888;BME280;6003;42.756;23.130;2023-03-22T05:10:58;154548.91;;;8.31;100.00
11888;BME280;6003;42.756;23.130;2023-03-22T05:13:26;154574.03;;;8.41;100.00
11888;BME280;6003;42.756;23.130;2023-03-22T05:15:53;154596.47;;;8.49;100.00
11888;BME280;6003;42.756;23.130;2023-03-22T05:18:21;154609.63;;;8.54;100.00
11888;BME280;6003;42.756;23.130;2023-03-22T05:20:51;154630.75;;;8.63;100.00
11888;BME280;6003;42.756;23.130;2023-03-22T05:23:21;154654.56;;;8.72;100.00
11888;BME280;6003;42.756;23.130;2023-03-22T05:25:49;154673.00;;;8.79;100.00
11888;BME280;6003;42.756;23.130;2023-03-22T05:28:18;154712.59;;;8.94;100.00
11888;BME280;6003;42.756;23.130;2023-03-22T05:30:46;154749.56;;;9.09;100.00
11888;BME280;6003;42.756;23.130;2023-03-22T05:33:13;154775.97;;;9.19;100.00
11888;BME280;6003;42.756;23.130;2023-03-22T05:35:41;154797.13;;;9.27;100.00
11888;BME280;6003;42.756;23.130;2023-03-22T05:38:08;154807.66;;;9.31;100.00
11888;BME280;6003;42.756;23.130;2023-03-22T05:40:37;154823.50;;;9.37;100.00
11888;BME280;6003;42.756;23.130;2023-03-22T05:43:04;154827.47;;;9.39;100.00
11888;BME280;6003;42.756;23.130;2023-03-22T05:45:31;154822.19;;;9.37;100.00
11888;BME280;6003;42.756;23.130;2023-03-22T05:47:58;154831.41;;;9.40;100.00
11888;BME280;6003;42.756;23.130;2023-03-22T05:50:24;154828.78;;;9.39;100.00
11888;BME280;6003;42.756;23.130;2023-03-22T05:52:52;154831.41;;;9.40;100.00
11888;BME280;6003;42.756;23.130;2023-03-22T05:55:19;154844.63;;;9.45;100.00
11888;BME280;6003;42.756;23.130;2023-03-22T05:57:48;154842.00;;;9.44;100.00
11888;BME280;6003;42.756;23.130;2023-03-22T06:00:17;154845.94;;;9.46;100.00
11888;BME280;6003;42.756;23.130;2023-03-22T06:02:45;154851.25;;;9.48;100.00
11888;BME280;6003;42.756;23.130;2023-03-22T06:05:14;154847.25;;;9.46;100.00
11888;BME280;6003;42.756;23.130;2023-03-22T06:07:41;154852.56;;;9.48;100.00
11888;BME280;6003;42.756;23.130;2023-03-22T06:10:11;154860.47;;;9.52;100.00
11888;BME280;6003;42.756;23.130;2023-03-22T06:12:39;154839.34;;;9.43;100.00
11888;BME280;6003;42.756;23.130;2023-03-22T06:15:08;154856.53;;;9.50;100.00
11888;BME280;6003;42.756;23.130;2023-03-22T06:17:35;154832.78;;;9.41;100.00
11888;BME280;6003;42.756;23.130;2023-03-22T06:20:02;154820.88;;;9.36;100.00
11888;BME280;6003;42.756;23.130;2023-03-22T06:22:33;154842.00;;;9.44;100.00
11888;BME280;6003;42.756;23.130;2023-03-22T06:25:00;154843.31;;;9.45;100.00
11888;BME280;6003;42.756;23.130;2023-03-22T06:27:27;154863.16;;;9.53;100.00
11888;BME280;6003;42.756;23.130;2023-03-22T06:29:56;154871.06;;;9.56;100.00
11888;BME280;6003;42.756;23.130;2023-03-22T06:32:24;154884.25;;;9.61;100.00
11888;BME280;6003;42.756;23.130;2023-03-22T06:34:51;154867.09;;;9.54;100.00
11888;BME280;6003;42.756;23.130;2023-03-22T06:37:18;154867.09;;;9.54;100.00
11888;BME280;6003;42.756;23.130;2023-03-22T06:39:45;154853.88;;;9.49;100.00
11888;BME280;6003;42.756;23.130;2023-03-22T06:42:12;154842.00;;;9.44;100.00
11888;BME280;6003;42.756;23.130;2023-03-22T06:44:39;154828.78;;;9.39;100.00
11888;BME280;6003;42.756;23.130;2023-03-22T06:47:08;154810.34;;;9.32;100.00
11888;BME280;6003;42.756;23.130;2023-03-22T06:49:36;154807.66;;;9.31;100.00
11888;BME280;6003;42.756;23.130;2023-03-22T06:52:03;154797.13;;;9.27;100.00
11888;BME280;6003;42.756;23.130;2023-03-22T06:54:30;154806.34;;;9.31;100.00
11888;BME280;6003;42.756;23.130;2023-03-22T06:56:57;154799.75;;;9.28;100.00
11888;BME280;6003;42.756;23.130;2023-03-22T06:59:24;154791.81;;;9.25;100.00
11888;BME280;6003;42.756;23.130;2023-03-22T07:01:50;154783.91;;;9.22;100.00
11888;BME280;6003;42.756;23.130;2023-03-22T07:04:17;154790.50;;;9.24;100.00
11888;BME280;6003;42.756;23.130;2023-03-22T07:06:46;154799.75;;;9.28;100.00
11888;BME280;6003;42.756;23.130;2023-03-22T07:09:12;154803.72;;;9.30;100.00
11888;BME280;6003;42.756;23.130;2023-03-22T07:11:39;154799.75;;;9.28;100.00
11888;BME280;6003;42.756;23.130;2023-03-22T07:14:06;154781.28;;;9.21;100.00
11888;BME280;6003;42.756;23.130;2023-03-22T07:16:33;154772.00;;;9.17;100.00
11888;BME280;6003;42.756;23.130;2023-03-22T07:19:00;154757.47;;;9.12;100.00
11888;BME280;6003;42.756;23.130;2023-03-22T07:21:26;154754.84;;;9.11;100.00
11888;BME280;6003;42.756;23.130;2023-03-22T07:23:55;154749.56;;;9.09;100.00
11888;BME280;6003;42.756;23.130;2023-03-22T07:26:22;154757.47;;;9.12;100.00
11888;BME280;6003;42.756;23.130;2023-03-22T07:28:50;154750.91;;;9.09;100.00
11888;BME280;6003;42.756;23.130;2023-03-22T07:31:17;154758.84;;;9.12;100.00
11888;BME280;6003;42.756;23.130;2023-03-22T07:33:44;154762.78;;;9.14;100.00
11888;BME280;6003;42.756;23.130;2023-03-22T07:36:11;154754.84;;;9.11;100.00
11888;BME280;6003;42.756;23.130;2023-03-22T07:38:38;154736.38;;;9.03;100.00
11888;BME280;6003;42.756;23.130;2023-03-22T07:41:06;154720.50;;;8.97;100.00
11888;BME280;6003;42.756;23.130;2023-03-22T07:43:33;154707.34;;;8.92;100.00
11888;BME280;6003;42.756;23.130;2023-03-22T07:46:00;154690.16;;;8.86;100.00
11888;BME280;6003;42.756;23.130;2023-03-22T07:48:27;154688.84;;;8.85;100.00
11888;BME280;6003;42.756;23.130;2023-03-22T07:50:55;154686.22;;;8.84;100.00
11888;BME280;6003;42.756;23.130;2023-03-22T07:53:22;154698.06;;;8.89;100.00
11888;BME280;6003;42.756;23.130;2023-03-22T07:55:49;154691.50;;;8.86;100.00
11888;BME280;6003;42.756;23.130;2023-03-22T07:58:17;154700.75;;;8.90;100.00
11888;BME280;6003;42.756;23.130;2023-03-22T08:00:44;154707.34;;;8.92;100.00
11888;BME280;6003;42.756;23.130;2023-03-22T08:03:11;154728.44;;;9.00;100.00
11888;BME280;6003;42.756;23.130;2023-03-22T08:05:39;154748.25;;;9.08;100.00
11888;BME280;6003;42.756;23.130;2023-03-22T08:08:07;154766.75;;;9.15;100.00
11888;BME280;6003;42.756;23.130;2023-03-22T08:10:34;154774.66;;;9.18;100.00
11888;BME280;6003;42.756;23.130;2023-03-22T08:13:00;154777.28;;;9.19;100.00
11888;BME280;6003;42.756;23.130;2023-03-22T08:15:29;154812.94;;;9.33;100.00
11888;BME280;6003;42.756;23.130;2023-03-22T08:17:56;154823.50;;;9.37;100.00
11888;BME280;6003;42.756;23.130;2023-03-22T08:20:23;154845.94;;;9.46;100.00
11888;BME280;6003;42.756;23.130;2023-03-22T08:22:52;154868.41;;;9.55;100.00
11888;BME280;6003;42.756;23.130;2023-03-22T08:25:19;154848.63;;;9.47;100.00
11888;BME280;6003;42.756;23.130;2023-03-22T08:27:46;154831.41;;;9.40;100.00
11888;BME280;6003;42.756;23.130;2023-03-22T08:30:13;154811.66;;;9.33;100.00
11888;BME280;6003;42.756;23.130;2023-03-22T08:32:42;154812.94;;;9.33;100.00
11888;BME280;6003;42.756;23.130;2023-03-22T08:35:09;154799.75;;;9.28;100.00
11888;BME280;6003;42.756;23.130;2023-03-22T08:37:36;154819.56;;;9.36;100.00
11888;BME280;6003;42.756;23.130;2023-03-22T08:40:05;154815.56;;;9.34;100.00
11888;BME280;6003;42.756;23.130;2023-03-22T08:42:33;154827.47;;;9.39;100.00
11888;BME280;6003;42.756;23.130;2023-03-22T08:45:00;154860.47;;;9.52;100.00
11888;BME280;6003;42.756;23.130;2023-03-22T08:47:27;154889.53;;;9.63;100.00
11888;BME280;6003;42.756;23.130;2023-03-22T08:49:56;154892.22;;;9.64;100.00
11888;BME280;6003;42.756;23.130;2023-03-22T08:52:23;154908.06;;;9.70;100.00
11888;BME280;6003;42.756;23.130;2023-03-22T08:54:49;154923.91;;;9.76;100.00
11888;BME280;6003;42.756;23.130;2023-03-22T08:57:17;154942.38;;;9.83;100.00
11888;BME280;6003;42.756;23.130;2023-03-22T08:59:46;154931.81;;;9.79;100.00
11888;BME280;6003;42.756;23.130;2023-03-22T09:02:13;154913.31;;;9.72;100.00
11888;BME280;6003;42.756;23.130;2023-03-22T09:04:39;154889.53;;;9.63;100.00
11888;BME280;6003;42.756;23.130;2023-03-22T09:07:08;154876.31;;;9.58;100.00
11888;BME280;6003;42.756;23.130;2023-03-22T09:09:35;154879.00;;;9.59;100.00
11888;BME280;6003;42.756;23.130;2023-03-22T09:12:01;154884.25;;;9.61;100.00
11888;BME280;6003;42.756;23.130;2023-03-22T09:14:28;154876.31;;;9.58;100.00
11888;BME280;6003;42.756;23.130;2023-03-22T09:16:55;154864.47;;;9.53;100.00
11888;BME280;6003;42.756;23.130;2023-03-22T09:19:22;154872.38;;;9.56;100.00
11888;BME280;6003;42.756;23.130;2023-03-22T09:21:48;154882.94;;;9.60;100.00
11888;BME280;6003;42.756;23.130;2023-03-22T09:24:18;154894.84;;;9.65;100.00
11888;BME280;6003;42.756;23.130;2023-03-22T09:26:45;154918.59;;;9.74;100.00
11888;BME280;6003;42.756;23.130;2023-03-22T09:29:12;154923.91;;;9.76;100.00
11888;BME280;6003;42.756;23.130;2023-03-22T09:31:39;154937.13;;;9.81;100.00
11888;BME280;6003;42.756;23.130;2023-03-22T09:34:06;154956.91;;;9.89;100.00
11888;BME280;6003;42.756;23.130;2023-03-22T09:36:33;154958.22;;;9.89;100.00
11888;BME280;6003;42.756;23.130;2023-03-22T09:39:00;154989.97;;;10.02;100.00
11888;BME280;6003;42.756;23.130;2023-03-22T09:41:35;155007.13;;;10.08;100.00
11888;BME280;6003;42.756;23.130;2023-03-22T09:44:07;155029.59;;;10.17;100.00
11888;BME280;6003;42.756;23.130;2023-03-22T09:46:37;155050.72;;;10.25;100.00
11888;BME280;6003;42.756;23.130;2023-03-22T09:49:09;155061.34;;;10.29;100.00
11888;BME280;6003;42.756;23.130;2023-03-22T09:51:39;155066.63;;;10.31;100.00
11888;BME280;6003;42.756;23.130;2023-03-22T09:54:12;155074.56;;;10.34;100.00
11888;BME280;6003;42.756;23.130;2023-03-22T09:56:43;155093.09;;;10.42;100.00
11888;BME280;6003;42.756;23.130;2023-03-22T09:59:14;155114.19;;;10.50;100.00
11888;BME280;6003;42.756;23.130;2023-03-22T10:01:47;155130.09;;;10.56;100.00
11888;BME280;6003;42.756;23.130;2023-03-22T10:04:25;155140.66;;;10.60;100.00
11888;BME280;6003;42.756;23.130;2023-03-22T10:07:02;155161.81;;;10.68;100.00
11888;BME280;6003;42.756;23.130;2023-03-22T10:09:34;155182.97;;;10.76;100.00
11888;BME280;6003;42.756;23.130;2023-03-22T10:12:09;155180.28;;;10.75;100.00
11888;BME280;6003;42.756;23.130;2023-03-22T10:14:44;155189.59;;;10.79;100.00
11888;BME280;6003;42.756;23.130;2023-03-22T10:17:17;155202.75;;;10.84;100.00
11888;BME280;6003;42.756;23.130;2023-03-22T10:19:50;155214.69;;;10.89;100.00
11888;BME280;6003;42.756;23.130;2023-03-22T10:22:21;155235.84;;;10.97;100.00
11888;BME280;6003;42.756;23.130;2023-03-22T10:24:50;155257.00;;;11.05;100.00
11888;BME280;6003;42.756;23.130;2023-03-22T10:27:22;155301.97;;;11.22;100.00
11888;BME280;6003;42.756;23.130;2023-03-22T10:29:52;155325.75;;;11.32;100.00
11888;BME280;6003;42.756;23.130;2023-03-22T10:32:24;155299.28;;;11.21;100.00
11888;BME280;6003;42.756;23.130;2023-03-22T10:34:53;155238.47;;;10.98;98.82
11888;BME280;6003;42.756;23.130;2023-03-22T10:37:22;155247.72;;;11.01;100.00
11888;BME280;6003;42.756;23.130;2023-03-22T10:39:52;155241.09;;;10.99;99.82
11888;BME280;6003;42.756;23.130;2023-03-22T10:42:23;155214.69;;;10.89;97.93
11888;BME280;6003;42.756;23.130;2023-03-22T10:44:53;155204.06;;;10.84;99.67
11888;BME280;6003;42.756;23.130;2023-03-22T10:47:27;155214.69;;;10.89;100.00
11888;BME280;6003;42.756;23.130;2023-03-22T10:49:55;155246.41;;;11.01;100.00
11888;BME280;6003;42.756;23.130;2023-03-22T10:52:34;155283.44;;;11.15;100.00
11888;BME280;6003;42.756;23.130;2023-03-22T10:55:08;155299.28;;;11.21;100.00
11888;BME280;6003;42.756;23.130;2023-03-22T10:57:37;155301.97;;;11.22;100.00
11888;BME280;6003;42.756;23.130;2023-03-22T11:00:06;155309.91;;;11.25;100.00
11888;BME280;6003;42.756;23.130;2023-03-22T11:02:43;155317.84;;;11.28;100.00
11888;BME280;6003;42.756;23.130;2023-03-22T11:05:19;155313.84;;;11.27;100.00
11888;BME280;6003;42.756;23.130;2023-03-22T11:07:47;155291.34;;;11.18;100.00
11888;BME280;6003;42.756;23.130;2023-03-22T11:10:23;155267.56;;;11.09;100.00
11888;BME280;6003;42.756;23.130;2023-03-22T11:12:54;155201.44;;;10.83;98.82
11888;BME280;6003;42.756;23.130;2023-03-22T11:15:26;155169.72;;;10.71;98.46
11888;BME280;6003;42.756;23.130;2023-03-22T11:18:00;155140.66;;;10.60;98.97
11888;BME280;6003;42.756;23.130;2023-03-22T11:20:27;155143.28;;;10.61;100.00
11888;BME280;6003;42.756;23.130;2023-03-22T11:22:54;155175.03;;;10.73;100.00
11888;BME280;6003;42.756;23.130;2023-03-22T11:25:26;155193.53;;;10.80;100.00
11888;BME280;6003;42.756;23.130;2023-03-22T11:27:57;155227.91;;;10.94;100.00
11888;BME280;6003;42.756;23.130;2023-03-22T11:30:33;155257.00;;;11.05;100.00
11888;BME280;6003;42.756;23.130;2023-03-22T11:33:08;155267.56;;;11.09;100.00
11888;BME280;6003;42.756;23.130;2023-03-22T11:35:43;155292.69;;;11.19;100.00
11888;BME280;6003;42.756;23.130;2023-03-22T11:38:22;155294.03;;;11.19;100.00
11888;BME280;6003;42.756;23.130;2023-03-22T11:40:54;155316.53;;;11.28;100.00
11888;BME280;6003;42.756;23.130;2023-03-22T11:43:24;155344.25;;;11.39;100.00
11888;BME280;6003;42.756;23.130;2023-03-22T11:45:55;155413.06;;;11.65;100.00
11888;BME280;6003;42.756;23.130;2023-03-22T11:48:23;155463.31;;;11.85;100.00
11888;BME280;6003;42.756;23.130;2023-03-22T11:50:54;155518.97;;;12.06;100.00
11888;BME280;6003;42.756;23.130;2023-03-22T11:53:23;155553.34;;;12.19;100.00
11888;BME280;6003;42.756;23.130;2023-03-22T11:55:53;155565.28;;;12.24;99.91
11888;BME280;6003;42.756;23.130;2023-03-22T11:58:26;155569.28;;;12.26;100.00
11888;BME280;6003;42.756;23.130;2023-03-22T12:00:54;155569.28;;;12.26;100.00
11888;BME280;6003;42.756;23.130;2023-03-22T12:03:25;155565.28;;;12.24;99.40
11888;BME280;6003;42.756;23.130;2023-03-22T12:05:53;155550.72;;;12.18;99.48
11888;BME280;6003;42.756;23.130;2023-03-22T12:08:27;155509.72;;;12.03;99.21
11888;BME280;6003;42.756;23.130;2023-03-22T12:11:00;155505.72;;;12.01;99.71
11888;BME280;6003;42.756;23.130;2023-03-22T12:13:37;155456.69;;;11.82;98.63
11888;BME280;6003;42.756;23.130;2023-03-22T12:16:08;155458.06;;;11.83;99.19
11888;BME280;6003;42.756;23.130;2023-03-22T12:18:43;155447.44;;;11.79;99.58
11888;BME280;6003;42.756;23.130;2023-03-22T12:21:12;155413.06;;;11.65;97.79
11888;BME280;6003;42.756;23.130;2023-03-22T12:23:40;155431.56;;;11.72;98.96
11888;BME280;6003;42.756;23.130;2023-03-22T12:26:11;155439.50;;;11.75;100.00
11888;BME280;6003;42.756;23.130;2023-03-22T12:28:48;155459.38;;;11.83;100.00
11888;BME280;6003;42.756;23.130;2023-03-22T12:31:20;155484.53;;;11.93;100.00
11888;BME280;6003;42.756;23.130;2023-03-22T12:33:50;155534.84;;;12.12;100.00
11888;BME280;6003;42.756;23.130;2023-03-22T12:36:22;155590.41;;;12.34;100.00
11888;BME280;6003;42.756;23.130;2023-03-22T12:38:54;155656.59;;;12.59;100.00
11888;BME280;6003;42.756;23.130;2023-03-22T12:41:25;155688.41;;;12.72;99.69
11888;BME280;6003;42.756;23.130;2023-03-22T12:43:55;155689.72;;;12.72;99.19
11888;BME280;6003;42.756;23.130;2023-03-22T12:46:24;155749.31;;;12.95;99.57
11888;BME280;6003;42.756;23.130;2023-03-22T12:48:54;155781.06;;;13.07;98.36
11888;BME280;6003;42.756;23.130;2023-03-22T12:51:22;155806.22;;;13.17;97.32
11888;BME280;6003;42.756;23.130;2023-03-22T12:53:50;155861.94;;;13.39;96.42
11888;BME280;6003;42.756;23.130;2023-03-22T12:56:21;155922.88;;;13.62;96.23
11888;BME280;6003;42.756;23.130;2023-03-22T12:58:51;155937.44;;;13.68;94.96
11888;BME280;6003;42.756;23.130;2023-03-22T13:01:28;155921.56;;;13.62;91.20
11888;BME280;6003;42.756;23.130;2023-03-22T13:03:58;155892.41;;;13.50;91.34